createdAt,value
2022-10-07T00:02:39.732Z,11.69
2022-10-07T00:05:19.850Z,11.67
2022-10-07T00:08:06.723Z,11.61
2022-10-07T00:10:54.712Z,11.62
2022-10-07T00:13:42.721Z,11.61
2022-10-07T00:16:26.247Z,11.61
2022-10-07T00:19:16.697Z,11.58
2022-10-07T00:22:03.713Z,11.64
2022-10-07T00:24:44.313Z,11.68
2022-10-07T00:27:30.702Z,11.70
2022-10-07T00:30:11.692Z,11.75
2022-10-07T00:32:58.700Z,11.72
2022-10-07T00:35:39.064Z,11.69
2022-10-07T00:38:25.715Z,11.71
2022-10-07T00:41:07.191Z,11.75
2022-10-07T00:43:53.742Z,11.77
2022-10-07T00:46:44.710Z,11.82
2022-10-07T00:49:31.723Z,11.85
2022-10-07T00:52:21.700Z,11.87
2022-10-07T00:55:05.288Z,11.92
2022-10-07T00:57:55.646Z,11.93
2022-10-07T01:00:42.665Z,11.98
2022-10-07T01:03:30.706Z,11.96
2022-10-07T01:06:11.738Z,11.96
2022-10-07T01:09:00.700Z,11.96
2022-10-07T01:12:03.771Z,11.94
2022-10-07T01:14:58.672Z,11.89
2022-10-07T01:18:03.670Z,11.86
2022-10-07T01:21:08.651Z,11.83
2022-10-07T01:24:16.787Z,11.82
2022-10-07T01:27:20.649Z,11.75
2022-10-07T01:30:13.628Z,11.71
2022-10-07T01:33:06.634Z,11.69
2022-10-07T01:35:50.767Z,11.63
2022-10-07T01:38:41.606Z,11.57
2022-10-07T01:41:25.130Z,11.61
2022-10-07T01:44:12.626Z,11.65
2022-10-07T01:46:59.617Z,11.66
2022-10-07T01:49:39.979Z,11.69
2022-10-07T01:52:44.614Z,11.80
2022-10-07T01:56:02.592Z,11.83
2022-10-07T01:59:20.598Z,11.86
2022-10-07T02:02:19.638Z,11.87
2022-10-07T02:05:09.586Z,11.89
2022-10-07T02:07:51.981Z,11.89
2022-10-07T02:11:09.615Z,11.92
2022-10-07T02:14:18.785Z,11.89
2022-10-07T02:17:16.619Z,11.86
2022-10-07T02:19:59.697Z,11.85
2022-10-07T02:22:47.549Z,11.82
2022-10-07T02:25:33.210Z,11.81
2022-10-07T02:28:22.618Z,11.79
2022-10-07T02:31:05.391Z,11.80
2022-10-07T02:33:53.583Z,11.81
2022-10-07T02:36:47.779Z,11.78
2022-10-07T02:39:34.610Z,11.79
2022-10-07T02:43:09.582Z,11.78
2022-10-07T02:46:01.835Z,11.70
2022-10-07T02:48:58.581Z,11.68
2022-10-07T02:51:46.496Z,11.68
2022-10-07T02:54:42.566Z,11.69
2022-10-07T02:57:32.547Z,11.67
2022-10-07T03:00:14.329Z,11.69
2022-10-07T03:03:09.519Z,11.69
2022-10-07T03:25:48.752Z,11.11
2022-10-07T03:28:42.801Z,11.27
2022-10-07T03:31:27.699Z,11.37
2022-10-07T03:34:15.834Z,11.43
2022-10-07T03:37:03.768Z,11.44
2022-10-07T03:39:44.127Z,11.49
2022-10-07T03:42:30.777Z,11.54
2022-10-07T03:45:17.751Z,11.54
2022-10-07T03:47:57.889Z,11.57
2022-10-07T03:50:44.744Z,11.58
2022-10-07T03:53:27.250Z,11.59
2022-10-07T03:56:14.758Z,11.64
2022-10-07T03:59:02.693Z,11.63
2022-10-07T04:01:49.765Z,11.68
2022-10-07T04:04:36.717Z,11.69
2022-10-07T04:07:23.761Z,11.74
2022-10-07T04:10:04.815Z,11.79
2022-10-07T04:12:52.727Z,11.86
2022-10-07T04:15:32.905Z,11.95
2022-10-07T04:18:19.706Z,12.00
2022-10-07T04:21:07.685Z,12.08
2022-10-07T04:23:48.143Z,12.18
2022-10-07T04:26:34.690Z,12.27
2022-10-07T04:29:21.869Z,12.33
2022-10-07T04:32:05.673Z,12.42
2022-10-07T04:34:53.171Z,12.59
2022-10-07T04:37:32.663Z,12.61
2022-10-07T04:40:13.095Z,12.78
2022-10-07T04:43:19.651Z,13.00
2022-10-07T04:46:09.709Z,13.21
2022-10-07T04:49:02.666Z,13.46
2022-10-07T04:51:49.653Z,13.74
2022-10-07T04:54:34.198Z,13.89
2022-10-07T04:57:20.638Z,14.04
2022-10-07T05:00:01.823Z,14.16
2022-10-07T05:02:48.641Z,14.20
2022-10-07T05:05:29.755Z,14.26
2022-10-07T05:08:16.632Z,14.52
2022-10-07T05:11:06.753Z,14.59
2022-10-07T05:14:04.652Z,14.81
2022-10-07T05:16:45.012Z,15.17
2022-10-07T05:19:33.604Z,15.20
2022-10-07T05:22:21.634Z,15.27
2022-10-07T05:25:08.745Z,15.42
2022-10-07T05:27:48.917Z,15.56
2022-10-07T05:30:29.003Z,15.99
2022-10-07T05:33:16.654Z,16.23
2022-10-07T05:35:57.211Z,16.71
2022-10-07T05:38:43.646Z,16.87
2022-10-07T05:41:31.614Z,17.16
2022-10-07T05:44:11.761Z,17.67
2022-10-07T05:46:59.584Z,18.09
2022-10-07T05:49:47.602Z,18.14
2022-10-07T05:52:28.491Z,18.39
2022-10-07T05:55:15.620Z,19.22
2022-10-07T05:57:56.039Z,19.45
2022-10-07T06:00:48.582Z,19.70
2022-10-07T06:03:35.885Z,19.67
2022-10-07T06:06:16.592Z,20.03
2022-10-07T06:09:24.578Z,19.61
2022-10-07T06:12:27.551Z,19.45
2022-10-07T06:15:18.550Z,19.44
2022-10-07T06:17:58.739Z,19.90
2022-10-07T06:20:46.542Z,20.24
2022-10-07T06:23:33.593Z,21.80
2022-10-07T06:26:27.563Z,22.24
2022-10-07T06:29:09.632Z,22.18
2022-10-07T06:31:56.591Z,22.16
2022-10-07T06:34:36.943Z,21.73
2022-10-07T06:37:23.554Z,21.89
2022-10-07T06:40:04.201Z,22.05
2022-10-07T06:42:50.494Z,21.96
2022-10-07T06:45:49.901Z,21.89
2022-10-07T06:48:36.536Z,21.62
2022-10-07T06:51:26.542Z,21.07
2022-10-07T06:54:06.630Z,21.16
2022-10-07T06:56:53.528Z,21.03
2022-10-07T06:59:33.631Z,21.40
2022-10-07T07:02:25.734Z,21.46
2022-10-07T07:05:15.519Z,21.94
2022-10-07T07:08:03.477Z,22.00
2022-10-07T07:10:45.612Z,22.13
2022-10-07T07:13:32.473Z,22.74
2022-10-07T07:16:19.547Z,23.29
2022-10-07T07:19:02.514Z,23.54
2022-10-07T07:21:51.400Z,23.33
2022-10-07T07:24:46.468Z,22.91
2022-10-07T07:27:33.538Z,23.19
2022-10-07T07:30:23.484Z,23.93
2022-10-07T07:33:13.505Z,24.49
2022-10-07T07:35:53.581Z,25.44
2022-10-07T07:38:40.477Z,24.94
2022-10-07T07:41:20.748Z,26.53
2022-10-07T07:44:10.484Z,26.09
2022-10-07T07:46:54.638Z,25.93
2022-10-07T07:49:42.507Z,26.76
2022-10-07T07:52:35.472Z,27.85
2022-10-07T07:55:22.461Z,28.16
2022-10-07T07:58:11.673Z,28.27
2022-10-07T08:01:03.570Z,28.84
2022-10-07T08:03:50.457Z,29.58
2022-10-07T08:06:38.418Z,31.96
2022-10-07T08:09:26.454Z,33.17
2022-10-07T08:12:07.830Z,34.30
2022-10-07T08:14:54.458Z,35.07
2022-10-07T08:17:48.739Z,34.66
2022-10-07T08:20:28.847Z,34.94
2022-10-07T08:23:15.443Z,34.72
2022-10-07T08:26:06.532Z,35.18
2022-10-07T08:28:46.435Z,31.97
2022-10-07T08:31:35.767Z,31.30
2022-10-07T08:34:17.424Z,32.04
2022-10-07T08:36:57.825Z,32.56
2022-10-07T08:39:44.381Z,32.47
2022-10-07T08:42:42.430Z,32.16
2022-10-07T08:45:39.506Z,32.63
2022-10-07T08:48:31.421Z,32.37
2022-10-07T08:51:23.497Z,33.52
2022-10-07T08:54:10.402Z,33.70
2022-10-07T08:56:50.533Z,32.90
2022-10-07T08:59:42.414Z,29.45
2022-10-07T09:02:42.510Z,28.00
2022-10-07T09:05:34.406Z,27.22
2022-10-07T09:08:44.591Z,28.43
2022-10-07T09:11:33.382Z,31.04
2022-10-07T09:14:37.392Z,32.32
2022-10-07T09:17:24.360Z,32.49
2022-10-07T09:20:17.382Z,35.33
2022-10-07T09:23:05.377Z,33.33
2022-10-07T09:25:59.363Z,34.03
2022-10-07T09:28:46.390Z,35.67
2022-10-07T09:31:28.538Z,36.77
2022-10-07T09:34:28.371Z,33.62
2022-10-07T09:37:31.348Z,33.29
2022-10-07T09:41:06.807Z,31.75
2022-10-07T09:44:15.381Z,33.31
2022-10-07T09:47:02.172Z,32.39
2022-10-07T09:50:03.337Z,34.05
2022-10-07T09:53:02.378Z,33.37
2022-10-07T09:55:47.482Z,33.65
2022-10-07T09:58:37.593Z,32.75
2022-10-07T10:01:17.596Z,33.68
2022-10-07T10:04:05.361Z,37.05
2022-10-07T10:06:59.333Z,36.48
2022-10-07T10:09:50.640Z,33.08
2022-10-07T10:12:42.087Z,33.10
2022-10-07T10:15:44.258Z,33.69
2022-10-07T10:18:44.363Z,34.81
2022-10-07T10:21:35.299Z,33.83
2022-10-07T10:24:48.315Z,32.10
2022-10-07T10:27:43.322Z,30.07
2022-10-07T10:30:28.430Z,31.80
2022-10-07T10:33:40.345Z,31.27
2022-10-07T10:36:27.911Z,29.30
2022-10-07T10:39:59.285Z,29.28
2022-10-07T10:43:08.265Z,32.04
2022-10-07T10:46:16.382Z,30.89
2022-10-07T10:49:02.415Z,29.80
2022-10-07T10:52:28.281Z,28.23
2022-10-07T10:55:53.290Z,28.77
2022-10-07T10:58:39.924Z,28.86
2022-10-07T11:01:57.322Z,29.09
2022-10-07T11:05:28.316Z,28.59
2022-10-07T11:08:38.815Z,28.83
2022-10-07T11:11:21.946Z,28.12
2022-10-07T11:14:14.275Z,28.23
2022-10-07T11:17:01.391Z,28.41
2022-10-07T11:20:01.247Z,28.92
2022-10-07T11:22:55.275Z,28.51
2022-10-07T11:25:59.286Z,27.58
2022-10-07T11:28:49.220Z,27.73
2022-10-07T11:31:52.287Z,27.03
2022-10-07T11:34:54.836Z,27.52
2022-10-07T11:37:48.282Z,27.09
2022-10-07T11:40:32.059Z,26.92
2022-10-07T11:43:27.248Z,27.12
2022-10-07T11:46:27.294Z,26.70
2022-10-07T11:49:10.400Z,26.89
2022-10-07T11:52:14.239Z,24.28
2022-10-07T11:55:20.354Z,22.76
2022-10-07T11:58:13.229Z,21.61
2022-10-07T12:00:53.334Z,20.73
2022-10-07T12:03:40.254Z,20.17
2022-10-07T12:06:20.302Z,19.72
2022-10-07T12:09:46.266Z,19.35
2022-10-07T12:12:37.234Z,18.89
2022-10-07T12:15:26.890Z,18.81
2022-10-07T12:18:18.181Z,18.74
2022-10-07T12:21:01.868Z,18.64
2022-10-07T12:23:53.189Z,18.63
2022-10-07T12:26:43.284Z,18.51
2022-10-07T12:29:35.184Z,18.65
2022-10-07T12:33:00.214Z,18.60
2022-10-07T12:35:51.476Z,18.74
2022-10-07T12:38:34.815Z,18.86
2022-10-07T12:41:27.186Z,18.86
2022-10-07T12:44:28.202Z,18.84
2022-10-07T12:47:24.189Z,18.74
2022-10-07T12:50:18.169Z,18.66
2022-10-07T12:53:10.153Z,18.54
2022-10-07T12:55:54.336Z,18.47
2022-10-07T12:59:37.157Z,18.53
2022-10-07T13:02:51.169Z,18.46
2022-10-07T13:06:02.242Z,18.51
2022-10-07T13:09:01.199Z,18.51
2022-10-07T13:12:07.320Z,18.37
2022-10-07T13:15:12.121Z,18.38
2022-10-07T13:18:10.985Z,18.33
2022-10-07T13:21:07.245Z,18.48
2022-10-07T13:23:47.125Z,18.47
2022-10-07T13:26:43.239Z,18.44
2022-10-07T13:29:30.420Z,18.57
2022-10-07T13:32:20.124Z,18.66
2022-10-07T13:35:21.181Z,18.69
2022-10-07T13:38:08.141Z,18.66
2022-10-07T13:41:09.137Z,18.73
2022-10-07T13:43:54.640Z,18.75
2022-10-07T13:46:43.127Z,18.71
2022-10-07T13:49:31.217Z,18.74
2022-10-07T13:52:37.117Z,18.62
2022-10-07T13:55:52.115Z,18.48
2022-10-07T13:58:39.173Z,18.51
2022-10-07T14:01:20.183Z,18.49
2022-10-07T14:04:34.070Z,18.46
2022-10-07T14:07:24.273Z,18.44
2022-10-07T14:10:16.093Z,18.55
2022-10-07T14:13:03.414Z,18.69
2022-10-07T14:15:56.084Z,18.76
2022-10-07T14:18:36.151Z,18.85
2022-10-07T14:21:24.070Z,18.95
2022-10-07T14:24:04.174Z,19.06
2022-10-07T14:26:52.074Z,19.10
2022-10-07T14:29:35.760Z,19.17
2022-10-07T14:32:46.230Z,19.13
2022-10-07T14:35:28.262Z,19.12
2022-10-07T14:38:41.069Z,19.09
2022-10-07T14:41:31.012Z,19.08
2022-10-07T14:44:11.423Z,19.07
2022-10-07T14:46:58.055Z,19.08
2022-10-07T14:49:38.777Z,19.03
2022-10-07T14:52:43.476Z,19.07
2022-10-07T14:55:34.033Z,18.80
2022-10-07T14:58:24.083Z,18.82
2022-10-07T15:01:05.057Z,18.69
2022-10-07T15:03:55.085Z,18.55
2022-10-07T15:06:35.478Z,18.48
2022-10-07T15:09:26.023Z,18.47
2022-10-07T15:27:36.928Z,17.63
2022-10-07T15:30:17.377Z,17.66
2022-10-07T15:33:03.966Z,17.67
2022-10-07T15:35:44.414Z,17.67
2022-10-07T15:38:30.930Z,17.65
2022-10-07T15:41:44.951Z,17.60
2022-10-07T15:44:29.938Z,17.56
2022-10-07T15:47:19.918Z,17.55
2022-10-07T15:50:06.940Z,17.50
2022-10-07T15:52:47.853Z,17.45
2022-10-07T15:55:34.987Z,17.41
2022-10-07T15:58:15.292Z,17.31
2022-10-07T16:01:16.979Z,17.29
2022-10-07T16:04:05.006Z,17.23
2022-10-07T16:06:57.928Z,17.20
2022-10-07T16:09:38.540Z,17.10
2022-10-07T16:12:24.964Z,17.03
2022-10-07T16:15:06.703Z,16.97
2022-10-07T16:17:53.931Z,16.94
2022-10-07T16:20:46.154Z,16.86
2022-10-07T16:23:25.924Z,16.83
2022-10-07T16:26:10.956Z,16.81
2022-10-07T16:29:17.885Z,16.80
2022-10-07T16:32:05.066Z,16.74
2022-10-07T16:34:47.028Z,16.71
2022-10-07T16:37:35.933Z,16.71
2022-10-07T16:40:15.971Z,16.68
2022-10-07T16:43:05.840Z,16.76
2022-10-07T16:45:45.978Z,16.74
2022-10-07T16:48:32.871Z,16.76
2022-10-07T16:51:40.187Z,16.73
2022-10-07T16:54:26.873Z,16.73
2022-10-07T16:57:06.955Z,16.77
2022-10-07T16:59:53.819Z,16.77
2022-10-07T17:02:40.950Z,16.78
2022-10-07T17:05:21.190Z,16.79
2022-10-07T17:08:07.875Z,16.81
2022-10-07T17:10:48.220Z,16.77
2022-10-07T17:13:34.819Z,16.76
2022-10-07T17:16:16.603Z,16.77
2022-10-07T17:19:04.927Z,16.78
2022-10-07T17:21:47.728Z,16.78
2022-10-07T17:24:36.843Z,16.79
2022-10-07T17:27:23.969Z,16.75
2022-10-07T17:30:03.959Z,16.83
2022-10-07T17:32:44.726Z,16.84
2022-10-07T17:35:31.855Z,16.86
2022-10-07T17:38:18.801Z,16.91
2022-10-07T17:40:58.926Z,16.85
2022-10-07T17:43:49.349Z,16.85
2022-10-07T17:46:31.549Z,16.85
2022-10-07T17:49:21.808Z,16.87
2022-10-07T17:52:01.975Z,16.87
2022-10-07T17:54:48.844Z,16.92
2022-10-07T17:57:32.243Z,16.89
2022-10-07T18:00:18.793Z,16.89
2022-10-07T18:02:58.983Z,16.93
2022-10-07T18:05:45.758Z,16.89
2022-10-07T18:08:33.870Z,16.89
2022-10-07T18:11:18.137Z,16.89
2022-10-07T18:14:22.742Z,16.89
2022-10-07T18:17:10.785Z,16.82
2022-10-07T18:19:50.900Z,16.77
2022-10-07T18:22:37.750Z,16.74
2022-10-07T18:25:24.815Z,16.69
2022-10-07T18:28:07.519Z,16.70
2022-10-07T18:30:54.765Z,16.68
2022-10-07T18:33:43.714Z,16.68
2022-10-07T18:36:31.788Z,16.62
2022-10-07T18:39:13.481Z,16.62
2022-10-07T18:41:59.709Z,16.58
2022-10-07T18:44:46.759Z,16.53
2022-10-07T18:47:26.901Z,16.51
2022-10-07T18:50:13.745Z,16.51
2022-10-07T18:53:00.748Z,16.48
2022-10-07T18:55:41.102Z,16.39
2022-10-07T18:58:27.765Z,16.35
2022-10-07T19:01:30.320Z,16.28
2022-10-07T19:04:17.723Z,16.21
2022-10-07T19:06:58.158Z,16.16
2022-10-07T19:09:44.734Z,16.14
2022-10-07T19:12:43.778Z,16.19
2022-10-07T19:15:30.723Z,16.15
2022-10-07T19:18:17.706Z,16.22
2022-10-07T19:21:04.849Z,16.27
2022-10-07T19:23:53.703Z,16.23
2022-10-07T19:26:43.934Z,16.10
2022-10-07T19:29:24.659Z,16.06
2022-10-07T19:32:12.758Z,16.03
2022-10-07T19:35:00.702Z,15.98
2022-10-07T19:37:48.913Z,15.94
2022-10-07T19:40:29.544Z,15.89
2022-10-07T19:43:17.677Z,15.85
2022-10-07T19:46:04.701Z,15.78
2022-10-07T19:48:52.678Z,15.76
2022-10-07T19:51:41.669Z,15.67
2022-10-07T19:54:28.687Z,15.67
2022-10-07T19:57:09.608Z,15.63
2022-10-07T19:59:56.673Z,15.57
2022-10-07T20:02:45.834Z,15.54
2022-10-07T20:05:36.649Z,15.50
2022-10-07T20:08:18.030Z,15.46
2022-10-07T20:11:04.634Z,15.40
2022-10-07T20:13:52.675Z,15.38
2022-10-07T20:16:40.682Z,15.28
2022-10-07T20:19:30.656Z,15.23
2022-10-07T20:22:17.615Z,15.17
2022-10-07T20:25:04.681Z,15.13
2022-10-07T20:27:51.686Z,15.05
2022-10-07T20:30:31.652Z,15.04
2022-10-07T20:33:12.113Z,14.98
2022-10-07T20:35:59.639Z,14.98
2022-10-07T20:39:05.562Z,14.94
2022-10-07T20:42:19.700Z,14.90
2022-10-07T20:45:00.263Z,14.86
2022-10-07T20:47:48.630Z,14.83
2022-10-07T20:50:28.970Z,14.75
2022-10-07T20:53:15.551Z,14.73
2022-10-07T20:55:55.959Z,14.71
2022-10-07T20:58:44.588Z,14.68
2022-10-07T21:01:25.851Z,14.65
2022-10-07T21:04:13.667Z,14.60
2022-10-07T21:06:55.817Z,14.57
2022-10-07T21:09:46.560Z,14.50
2022-10-07T21:12:26.967Z,14.41
2022-10-07T21:15:13.636Z,14.34
2022-10-07T21:18:01.551Z,14.28
2022-10-07T21:20:41.648Z,14.18
2022-10-07T21:23:32.593Z,14.08
2022-10-07T21:26:12.661Z,14.01
2022-10-07T21:28:59.570Z,13.99
2022-10-07T21:31:40.085Z,13.94
